Marlow, Oklahoma
Current Conditions -  °F | °C
As of 4:35 AM on Thursday 18 Dec 2014 (Local Time) from KDUC Reporting Station
Overcast Overcast  
Wind Chill:   Ceiling: 100
Heat Index:   Visibility: NA
Dew Point:   Wind: 8mph
Humidity: 100%   Direction: 140°SE
Pressure: 30.09"   Gusts: NA
Location:  34.65°N, 97.96°W
Report Text: KDUC 181035Z AUTO 14007KT OVC001 03/03 A3009 RMK AO2 PWINO
Loading
Personal Weather Stations






























Interactive Weather Map New forecast layout! Learn more

10-Day Weather Forecast

Advertisements
Track Severe Weather on mobile